createdAt,value
2023-05-07T00:02:27.901Z,99902.47
2023-05-07T00:05:01.475Z,99908.09
2023-05-07T00:07:30.169Z,99917.47
2023-05-07T00:10:00.047Z,99916.41
2023-05-07T00:12:28.470Z,99917.19
2023-05-07T00:14:56.889Z,99910.00
2023-05-07T00:17:25.287Z,99903.31
2023-05-07T00:19:53.693Z,99902.75
2023-05-07T00:22:22.267Z,99905.72
2023-05-07T00:24:50.578Z,99890.22
2023-05-07T00:27:20.260Z,99893.41
2023-05-07T00:29:48.616Z,99893.94
2023-05-07T00:32:17.014Z,99895.84
2023-05-07T00:34:46.002Z,99899.31
2023-05-07T00:37:14.391Z,99900.41
2023-05-07T00:39:42.788Z,99891.84
2023-05-07T00:42:11.123Z,99885.97
2023-05-07T00:44:40.844Z,99882.22
2023-05-07T00:47:09.467Z,99891.84
2023-05-07T00:49:42.313Z,99893.19
2023-05-07T00:52:13.637Z,99892.91
2023-05-07T00:54:43.658Z,99880.88
2023-05-07T00:57:13.429Z,99886.50
2023-05-07T00:59:44.222Z,99885.72
2023-05-07T01:02:13.406Z,99879.03
2023-05-07T01:04:42.021Z,99885.69
2023-05-07T01:07:11.305Z,99885.19
2023-05-07T01:09:40.823Z,99883.84
2023-05-07T01:12:10.642Z,99871.81
2023-05-07T01:14:39.021Z,99875.84
2023-05-07T01:17:09.400Z,99871.81
2023-05-07T01:19:38.372Z,99881.16
2023-05-07T01:22:11.651Z,99883.31
2023-05-07T01:24:55.122Z,99889.16
2023-05-07T01:27:23.677Z,99867.53
2023-05-07T01:29:53.831Z,99875.78
2023-05-07T01:32:29.975Z,99869.38
2023-05-07T01:35:02.392Z,99876.59
2023-05-07T01:37:31.421Z,99872.59
2023-05-07T01:40:01.767Z,99868.59
2023-05-07T01:42:31.789Z,99860.81
2023-05-07T01:45:00.308Z,99862.97
2023-05-07T01:47:29.657Z,99855.50
2023-05-07T01:49:58.342Z,99858.69
2023-05-07T01:52:26.756Z,99854.44
2023-05-07T01:54:55.134Z,99857.06
2023-05-07T01:57:24.815Z,99864.84
2023-05-07T01:59:53.177Z,99874.97
2023-05-07T02:02:21.519Z,99873.66
2023-05-07T02:04:50.160Z,99866.69
2023-05-07T02:07:19.902Z,99864.03
2023-05-07T02:09:48.542Z,99862.44
2023-05-07T02:12:17.124Z,99860.56
2023-05-07T02:14:47.257Z,99854.16
2023-05-07T02:17:16.152Z,99866.69
2023-05-07T02:19:44.485Z,99863.72
2023-05-07T02:22:12.987Z,99863.72
2023-05-07T02:24:41.304Z,99862.41
2023-05-07T02:27:09.707Z,99866.13
2023-05-07T02:29:39.926Z,99865.88
2023-05-07T02:32:10.815Z,99861.88
2023-05-07T02:34:39.320Z,99865.63
2023-05-07T02:37:07.806Z,99866.94
2023-05-07T02:39:36.177Z,99882.41
2023-05-07T02:42:04.675Z,99872.00
2023-05-07T02:44:33.094Z,99869.84
2023-05-07T02:47:01.479Z,99865.03
2023-05-07T02:49:31.233Z,99878.38
2023-05-07T02:52:00.338Z,99872.25
2023-05-07T02:54:28.854Z,99870.66
2023-05-07T02:56:57.436Z,99860.75
2023-05-07T02:59:27.226Z,99865.84
2023-05-07T03:01:55.709Z,99863.41
2023-05-07T03:04:24.148Z,99865.56
2023-05-07T03:06:53.845Z,99871.97
2023-05-07T03:09:22.230Z,99862.34
2023-05-07T03:11:50.846Z,99872.50
2023-05-07T03:14:19.250Z,99872.50
2023-05-07T03:16:47.645Z,99878.88
2023-05-07T03:19:16.105Z,99876.47
2023-05-07T03:21:44.588Z,99870.59
2023-05-07T03:24:14.466Z,99861.75
2023-05-07T03:26:42.788Z,99859.34
2023-05-07T03:29:11.201Z,99863.09
2023-05-07T03:31:39.569Z,99856.13
2023-05-07T03:34:07.987Z,99850.50
2023-05-07T03:36:39.155Z,99846.53
2023-05-07T03:39:13.226Z,99851.59
2023-05-07T03:41:44.405Z,99848.41
2023-05-07T03:44:13.110Z,99848.91
2023-05-07T03:46:43.232Z,99846.50
2023-05-07T03:49:13.300Z,99849.44
2023-05-07T03:51:41.668Z,99845.69
2023-05-07T03:54:10.589Z,99857.97
2023-05-07T03:56:44.984Z,99847.00
2023-05-07T03:59:14.080Z,99858.75
2023-05-07T04:01:43.525Z,99854.16
2023-05-07T04:04:17.682Z,99860.56
2023-05-07T04:06:46.182Z,99862.19
2023-05-07T04:09:15.245Z,99862.97
2023-05-07T04:11:45.069Z,99873.63
2023-05-07T04:14:13.780Z,99875.50
2023-05-07T04:16:42.287Z,99873.09
2023-05-07T04:19:11.018Z,99876.28
2023-05-07T04:21:41.223Z,99877.34
2023-05-07T04:24:09.938Z,99882.94
2023-05-07T04:26:38.281Z,99875.44
2023-05-07T04:29:08.102Z,99877.59
2023-05-07T04:31:36.719Z,99872.50
2023-05-07T04:34:05.127Z,99880.50
2023-05-07T04:36:34.255Z,99881.84
2023-05-07T04:39:07.655Z,99887.41
2023-05-07T04:41:38.196Z,99886.88
2023-05-07T04:44:10.295Z,99869.78
2023-05-07T04:46:38.802Z,99883.66
2023-05-07T04:49:07.774Z,99885.53
2023-05-07T04:51:36.604Z,99889.25
2023-05-07T04:54:05.374Z,99880.72
2023-05-07T04:56:33.811Z,99887.63
2023-05-07T04:59:03.278Z,99886.84
2023-05-07T05:01:35.955Z,99885.25
2023-05-07T05:04:06.846Z,99903.09
2023-05-07T05:06:35.226Z,99891.38
2023-05-07T05:09:06.622Z,99894.31
2023-05-07T05:11:35.973Z,99889.50
2023-05-07T05:14:04.553Z,99894.31
2023-05-07T05:16:34.411Z,99898.81
2023-05-07T05:19:04.750Z,99893.75
2023-05-07T05:21:35.756Z,99901.47
2023-05-07T05:24:09.717Z,99905.78
2023-05-07T05:26:38.285Z,99898.81
2023-05-07T05:29:07.470Z,99892.16
2023-05-07T05:31:37.501Z,99899.34
2023-05-07T05:34:06.119Z,99900.44
2023-05-07T05:36:35.297Z,99899.38
2023-05-07T05:39:04.327Z,99895.09
2023-05-07T05:41:32.861Z,99895.63
2023-05-07T05:44:01.440Z,99888.44
2023-05-07T05:46:29.968Z,99894.59
2023-05-07T05:48:59.767Z,99901.53
2023-05-07T05:51:28.589Z,99898.59
2023-05-07T05:53:57.014Z,99891.94
2023-05-07T05:56:25.577Z,99902.59
2023-05-07T05:58:54.093Z,99898.88
2023-05-07T06:01:22.490Z,99911.16
2023-05-07T06:03:52.865Z,99900.22
2023-05-07T06:06:22.623Z,99902.91
2023-05-07T06:08:50.996Z,99899.97
2023-05-07T06:11:23.894Z,99910.66
2023-05-07T06:13:52.358Z,99902.16
2023-05-07T06:16:20.914Z,99904.56
2023-05-07T06:18:50.313Z,99901.94
2023-05-07T06:21:18.795Z,99902.19
2023-05-07T06:23:48.517Z,99904.34
2023-05-07T06:26:17.053Z,99899.03
2023-05-07T06:28:48.730Z,99900.91
2023-05-07T06:31:21.567Z,99894.78
2023-05-07T06:34:01.040Z,99902.03
2023-05-07T06:36:34.848Z,99891.66
2023-05-07T06:39:09.020Z,99907.97
2023-05-07T06:41:38.144Z,99897.53
2023-05-07T06:44:11.169Z,99907.22
2023-05-07T06:46:44.427Z,99904.56
2023-05-07T06:49:14.734Z,99907.22
2023-05-07T06:51:43.264Z,99904.59
2023-05-07T06:54:12.960Z,99911.78
2023-05-07T06:56:42.899Z,99878.16
2023-05-07T06:59:11.499Z,99895.53
2023-05-07T07:01:42.509Z,99895.28
2023-05-07T07:04:12.615Z,99887.81
2023-05-07T07:06:43.001Z,99888.59
2023-05-07T07:09:15.971Z,99887.56
2023-05-07T07:11:44.303Z,99889.16
2023-05-07T07:14:12.702Z,99882.75
2023-05-07T07:16:47.852Z,99883.56
2023-05-07T07:19:17.760Z,99886.50
2023-05-07T07:21:48.912Z,99894.28
2023-05-07T07:24:22.235Z,99926.31
2023-05-07T07:26:56.329Z,99893.44
2023-05-07T07:29:27.665Z,99900.94
2023-05-07T07:31:56.570Z,99898.78
2023-05-07T07:34:25.524Z,99888.09
2023-05-07T07:36:54.004Z,99901.44
2023-05-07T07:39:24.061Z,99894.19
2023-05-07T07:41:55.819Z,99905.16
2023-05-07T07:44:24.669Z,99890.69
2023-05-07T07:46:58.599Z,99894.44
2023-05-07T07:49:37.896Z,99874.59
2023-05-07T07:55:59.874Z,99896.22
2023-05-07T08:02:57.626Z,99911.44
2023-05-07T08:05:32.126Z,99925.28
2023-05-07T08:08:01.826Z,99913.19
2023-05-07T08:10:40.290Z,99904.56
2023-05-07T08:13:17.918Z,99917.66
2023-05-07T08:15:46.469Z,99920.06
2023-05-07T08:20:02.049Z,99910.41
2023-05-07T08:22:31.806Z,99894.56
2023-05-07T08:25:00.811Z,99902.59
2023-05-07T08:27:29.453Z,99914.84
2023-05-07T08:29:59.915Z,99911.91
2023-05-07T08:32:29.660Z,99912.97
2023-05-07T08:34:58.107Z,99910.53
2023-05-07T08:37:26.476Z,99907.25
2023-05-07T08:39:55.061Z,99914.72
2023-05-07T08:42:26.977Z,99917.34
2023-05-07T08:45:00.971Z,99924.81
2023-05-07T08:47:38.255Z,99928.53
2023-05-07T08:50:09.154Z,99931.72
2023-05-07T08:52:38.508Z,99930.31
2023-05-07T08:55:09.417Z,99932.69
2023-05-07T08:57:40.339Z,99938.06
2023-05-07T09:00:13.308Z,99938.28
2023-05-07T09:02:43.188Z,99928.06
2023-05-07T09:05:12.827Z,99933.66
2023-05-07T09:07:41.758Z,99927.44
2023-05-07T09:10:12.236Z,99930.34
2023-05-07T09:12:42.841Z,99933.00
2023-05-07T09:15:14.650Z,99935.63
2023-05-07T09:17:44.334Z,99931.81
2023-05-07T09:20:13.404Z,99925.91
2023-05-07T09:22:42.393Z,99916.47
2023-05-07T09:25:14.560Z,99921.25
2023-05-07T09:27:45.241Z,99905.38
2023-05-07T09:30:45.626Z,99911.00
2023-05-07T09:33:15.348Z,99907.47
2023-05-07T09:35:48.476Z,99912.25
2023-05-07T09:38:22.530Z,99906.84
2023-05-07T09:41:05.503Z,99911.63
2023-05-07T09:44:10.196Z,99908.66
2023-05-07T09:46:46.096Z,99909.44
2023-05-07T09:49:25.953Z,99910.16
2023-05-07T09:52:03.176Z,99908.22
2023-05-07T09:54:35.652Z,99893.13
2023-05-07T09:57:06.244Z,99900.53
2023-05-07T09:59:36.231Z,99899.38
2023-05-07T10:02:11.252Z,99893.44
2023-05-07T10:04:48.125Z,99890.69
2023-05-07T10:07:19.120Z,99891.13
2023-05-07T10:09:49.445Z,99905.78
2023-05-07T10:12:31.425Z,99904.91
2023-05-07T10:15:00.165Z,99889.78
2023-05-07T10:17:30.750Z,99891.06
2023-05-07T10:19:59.665Z,99893.13
2023-05-07T10:22:29.520Z,99894.91
2023-05-07T10:25:01.875Z,99900.19
2023-05-07T10:27:31.520Z,99898.25
2023-05-07T10:30:16.686Z,99887.91
2023-05-07T10:32:51.756Z,99884.56
2023-05-07T10:35:33.851Z,99885.75
2023-05-07T10:38:05.749Z,99885.38
2023-05-07T10:40:37.650Z,99878.53
2023-05-07T10:43:10.860Z,99878.16
2023-05-07T10:46:13.304Z,99880.56
2023-05-07T10:49:12.456Z,99880.50
2023-05-07T10:52:21.057Z,99877.22
2023-05-07T10:55:26.504Z,99877.09
2023-05-07T11:01:11.180Z,99874.75
2023-05-07T11:04:17.149Z,99862.38
2023-05-07T11:07:32.194Z,99863.09
2023-05-07T11:10:10.001Z,99857.19
2023-05-07T11:13:00.873Z,99856.00
2023-05-07T11:15:46.368Z,99856.09
2023-05-07T11:18:22.424Z,99846.31
2023-05-07T11:20:57.990Z,99852.09
2023-05-07T11:24:01.181Z,99856.59
2023-05-07T11:26:49.758Z,99860.00
2023-05-07T11:29:22.547Z,99843.91
2023-05-07T11:31:56.385Z,99848.88
2023-05-07T11:34:28.953Z,99851.69
2023-05-07T11:37:01.872Z,99843.97
2023-05-07T11:39:49.061Z,99843.06
2023-05-07T11:42:31.676Z,99845.94
2023-05-07T11:45:00.788Z,99843.13
2023-05-07T11:47:32.392Z,99838.09
2023-05-07T11:50:06.200Z,99832.47
2023-05-07T11:52:37.079Z,99831.75
2023-05-07T11:55:06.745Z,99835.34
2023-05-07T12:00:06.582Z,99831.97
2023-05-07T12:02:44.355Z,99828.00
2023-05-07T12:05:13.102Z,99827.91
2023-05-07T12:07:45.122Z,99820.59
2023-05-07T12:10:15.168Z,99818.38
2023-05-07T12:12:43.922Z,99815.38
2023-05-07T12:15:12.994Z,99825.22
2023-05-07T12:17:42.248Z,99818.72
2023-05-07T12:20:12.265Z,99825.91
2023-05-07T12:22:42.751Z,99820.69
2023-05-07T12:25:11.857Z,99824.97
2023-05-07T12:27:42.652Z,99820.56
2023-05-07T12:30:14.725Z,99818.84
2023-05-07T12:32:43.323Z,99818.69
2023-05-07T12:35:11.912Z,99811.59
2023-05-07T12:38:49.328Z,99813.00
2023-05-07T12:41:18.053Z,99818.44
2023-05-07T12:43:47.987Z,99816.69
2023-05-07T12:46:18.179Z,99811.16
2023-05-07T12:48:48.348Z,99810.84
2023-05-07T12:51:17.944Z,99799.91
2023-05-07T12:53:48.940Z,99801.97
2023-05-07T12:56:18.697Z,99794.03
2023-05-07T12:58:47.104Z,99798.81
2023-05-07T13:01:20.300Z,99793.09
2023-05-07T13:03:51.773Z,99789.28
2023-05-07T13:06:20.342Z,99796.28
2023-05-07T13:08:50.085Z,99798.69
2023-05-07T13:11:18.490Z,99791.53
2023-05-07T13:13:46.867Z,99792.00
2023-05-07T13:16:15.336Z,99790.91
2023-05-07T13:18:44.941Z,99791.38
2023-05-07T13:21:14.738Z,99794.06
2023-05-07T13:23:43.167Z,99788.41
2023-05-07T13:26:25.749Z,99780.31
2023-05-07T13:28:55.772Z,99781.34
2023-05-07T13:31:24.407Z,99785.88
2023-05-07T13:33:53.715Z,99782.03
2023-05-07T13:36:22.522Z,99784.13
2023-05-07T13:38:51.383Z,99783.00
2023-05-07T13:41:21.174Z,99775.69
2023-05-07T13:43:50.083Z,99779.19
2023-05-07T13:46:19.108Z,99772.97
2023-05-07T13:48:47.621Z,99761.88
2023-05-07T13:51:16.177Z,99761.06
2023-05-07T13:53:44.646Z,99762.66
2023-05-07T13:56:13.099Z,99752.16
2023-05-07T13:58:56.023Z,99759.81
2023-05-07T14:01:25.158Z,99759.31
2023-05-07T14:03:53.617Z,99767.75
2023-05-07T14:06:22.865Z,99759.47
2023-05-07T14:08:51.541Z,99765.16
2023-05-07T14:11:20.192Z,99759.59
2023-05-07T14:13:49.979Z,99757.03
2023-05-07T14:16:18.343Z,99766.25
2023-05-07T14:18:46.707Z,99769.09
2023-05-07T14:21:15.311Z,99767.50
2023-05-07T14:23:43.762Z,99762.75
2023-05-07T14:26:12.234Z,99768.13
2023-05-07T14:28:40.971Z,99767.19
2023-05-07T14:31:10.868Z,99772.09
2023-05-07T14:33:41.742Z,99781.63
2023-05-07T14:36:10.534Z,99796.53
2023-05-07T14:38:39.190Z,99806.88
2023-05-07T14:41:07.549Z,99814.00
2023-05-07T14:43:35.882Z,99837.16
2023-05-07T14:46:04.311Z,99846.81
2023-05-07T14:48:34.085Z,99878.38
2023-05-07T14:51:02.541Z,99890.19
2023-05-07T14:53:30.983Z,99899.63
2023-05-07T14:55:59.583Z,99922.75
2023-05-07T15:00:56.238Z,99998.19
2023-05-07T15:03:24.863Z,100030.03
2023-05-07T15:05:54.795Z,100020.38
2023-05-07T15:08:23.231Z,100045.22
2023-05-07T15:10:51.720Z,100037.63
2023-05-07T15:13:20.154Z,100008.47
2023-05-07T15:15:48.848Z,100016.28
2023-05-07T15:18:17.847Z,100002.59
2023-05-07T15:20:46.447Z,100008.72
2023-05-07T15:23:16.287Z,100025.34
2023-05-07T15:25:50.272Z,100036.56
2023-05-07T15:28:20.779Z,100039.38
2023-05-07T15:30:49.865Z,100037.06
2023-05-07T15:33:18.235Z,100044.91
2023-05-07T15:35:46.676Z,100065.41
2023-05-07T15:38:17.158Z,100070.56
2023-05-07T15:40:45.832Z,100073.34
2023-05-07T15:43:14.255Z,100053.78
2023-05-07T15:45:43.893Z,100046.88
2023-05-07T15:48:12.876Z,100049.63
2023-05-07T15:50:41.330Z,100051.88
2023-05-07T15:53:10.564Z,100051.94
2023-05-07T15:55:40.828Z,100050.41
2023-05-07T15:58:09.316Z,100044.06
2023-05-07T16:00:37.841Z,100047.31
2023-05-07T16:03:06.371Z,100059.72
2023-05-07T16:05:34.825Z,100067.03
2023-05-07T16:08:04.187Z,100059.53
2023-05-07T16:10:32.555Z,100054.25
2023-05-07T16:13:03.086Z,100048.34
2023-05-07T16:15:31.517Z,100047.31
2023-05-07T16:17:59.895Z,100062.09
2023-05-07T16:20:31.039Z,100060.28
2023-05-07T16:22:59.760Z,100057.34
2023-05-07T16:25:28.177Z,100060.63
2023-05-07T16:27:57.375Z,100064.69
2023-05-07T16:30:27.330Z,100066.06
2023-05-07T16:32:55.799Z,100072.53
2023-05-07T16:35:24.277Z,100078.94
2023-05-07T16:37:53.071Z,100087.06
2023-05-07T16:40:21.486Z,100077.69
2023-05-07T16:42:49.814Z,100079.06
2023-05-07T16:45:19.278Z,100075.84
2023-05-07T16:47:49.138Z,100086.91
2023-05-07T16:50:17.572Z,100083.16
2023-05-07T16:52:45.890Z,100091.47
2023-05-07T16:55:14.749Z,100090.94
2023-05-07T16:57:43.300Z,100097.97
2023-05-07T17:00:13.200Z,100086.41
2023-05-07T17:02:41.603Z,100097.72
2023-05-07T17:05:11.902Z,100097.22
2023-05-07T17:07:40.560Z,100087.03
2023-05-07T17:10:10.351Z,100091.06
2023-05-07T17:12:38.938Z,100092.16
2023-05-07T17:15:08.859Z,100095.13
2023-05-07T17:17:37.280Z,100107.22
2023-05-07T17:20:06.888Z,100098.38
2023-05-07T17:22:36.799Z,100085.22
2023-05-07T17:25:05.740Z,100087.41
2023-05-07T17:27:35.068Z,100086.88
2023-05-07T17:30:03.559Z,100082.59
2023-05-07T17:32:32.894Z,100084.75
2023-05-07T17:35:01.244Z,100074.56
2023-05-07T17:37:52.820Z,100068.69
2023-05-07T17:40:23.280Z,100074.09
2023-05-07T17:42:54.652Z,100084.03
2023-05-07T17:45:24.366Z,100080.03
2023-05-07T17:47:52.734Z,100084.06
2023-05-07T17:50:21.757Z,100077.91
2023-05-07T17:52:50.098Z,100085.41
2023-05-07T17:55:18.643Z,100084.91
2023-05-07T17:57:48.431Z,100047.38
2023-05-07T18:00:17.430Z,100081.75
2023-05-07T18:02:46.311Z,100064.56
2023-05-07T18:05:14.806Z,100051.44
2023-05-07T18:07:43.125Z,100059.25
2023-05-07T18:10:12.577Z,100063.53
2023-05-07T18:12:41.540Z,100064.63
2023-05-07T18:15:11.899Z,100054.44
2023-05-07T18:17:40.985Z,100059.81
2023-05-07T18:20:11.759Z,100065.47
2023-05-07T18:22:40.482Z,100063.59
2023-05-07T18:25:10.034Z,100063.59
2023-05-07T18:27:38.432Z,100063.59
2023-05-07T18:30:08.342Z,100072.97
2023-05-07T18:32:38.205Z,100068.72
2023-05-07T18:35:07.806Z,100073.53
2023-05-07T18:37:36.508Z,100062.31
2023-05-07T18:40:06.144Z,100079.75
2023-05-07T18:42:36.963Z,100073.84
2023-05-07T18:45:06.815Z,100073.34
2023-05-07T18:47:35.264Z,100078.16
2023-05-07T18:50:08.183Z,100080.34
2023-05-07T18:52:37.051Z,100091.06
2023-05-07T18:55:08.377Z,100077.66
2023-05-07T18:57:36.764Z,100089.72
2023-05-07T19:00:09.306Z,100104.50
2023-05-07T19:02:37.960Z,100108.25
2023-05-07T19:05:09.482Z,100106.66
2023-05-07T19:07:37.863Z,100118.47
2023-05-07T19:10:07.807Z,100110.69
2023-05-07T19:12:36.212Z,100117.91
2023-05-07T19:15:05.157Z,100121.44
2023-05-07T19:17:33.561Z,100129.75
2023-05-07T19:20:02.044Z,100131.63
2023-05-07T19:22:31.778Z,100134.56
2023-05-07T19:25:00.269Z,100145.84
2023-05-07T19:27:28.646Z,100142.66
2023-05-07T19:29:57.371Z,100138.09
2023-05-07T19:32:27.345Z,100153.38
2023-05-07T19:34:55.973Z,100150.19
2023-05-07T19:37:25.563Z,100167.88
2023-05-07T19:39:56.240Z,100164.09
2023-05-07T19:42:24.615Z,100170.56
2023-05-07T19:44:52.990Z,100174.81
2023-05-07T19:47:21.434Z,100172.16
2023-05-07T19:49:49.782Z,100183.94
2023-05-07T19:52:18.147Z,100187.72
2023-05-07T19:54:46.494Z,100187.16
2023-05-07T19:57:17.632Z,100192.53
2023-05-07T19:59:47.804Z,100200.03
2023-05-07T20:02:16.584Z,100190.66
2023-05-07T20:04:44.976Z,100201.38
2023-05-07T20:07:13.316Z,100204.34
2023-05-07T20:09:41.732Z,100204.84
2023-05-07T20:12:10.249Z,100210.19
2023-05-07T20:14:40.261Z,100213.41
2023-05-07T20:17:08.591Z,100223.59
2023-05-07T20:19:36.941Z,100222.25
2023-05-07T20:22:05.244Z,100225.75
2023-05-07T20:24:39.400Z,100220.38
2023-05-07T20:27:07.836Z,100226.00
2023-05-07T20:29:36.383Z,100222.25
2023-05-07T20:32:06.807Z,100225.47
2023-05-07T20:34:35.189Z,100223.06
2023-05-07T20:37:03.556Z,100234.84
2023-05-07T20:39:31.893Z,100215.59
2023-05-07T20:42:00.377Z,100230.03
2023-05-07T20:44:30.639Z,100244.78
2023-05-07T20:46:59.037Z,100239.16
2023-05-07T20:49:28.973Z,100248.22
2023-05-07T20:51:57.965Z,100240.47
2023-05-07T20:54:28.213Z,100241.28
2023-05-07T20:56:57.958Z,100243.44
2023-05-07T20:59:26.576Z,100244.50
2023-05-07T21:01:56.778Z,100249.03
2023-05-07T21:04:25.214Z,100244.78
2023-05-07T21:06:54.947Z,100241.28
2023-05-07T21:09:23.375Z,100251.97
2023-05-07T21:11:51.726Z,100260.81
2023-05-07T21:14:20.165Z,100258.97
2023-05-07T21:16:48.631Z,100262.16
2023-05-07T21:19:17.122Z,100272.84
2023-05-07T21:21:45.508Z,100261.34
2023-05-07T21:24:15.253Z,100266.69
2023-05-07T21:26:43.756Z,100252.53
2023-05-07T21:29:12.197Z,100261.09
2023-05-07T21:31:40.676Z,100266.19
2023-05-07T21:34:09.138Z,100257.31
2023-05-07T21:36:37.566Z,100254.63
2023-05-07T21:39:07.937Z,100258.94
2023-05-07T21:41:38.037Z,100262.16
2023-05-07T21:44:07.069Z,100262.16
2023-05-07T21:46:35.552Z,100254.66
2023-05-07T21:49:03.958Z,100262.41
2023-05-07T21:51:34.562Z,100265.06
2023-05-07T21:54:02.955Z,100275.00
2023-05-07T21:56:31.360Z,100279.28
2023-05-07T21:59:03.453Z,100271.25
2023-05-07T22:01:32.219Z,100273.41
2023-05-07T22:04:00.707Z,100269.91
2023-05-07T22:06:29.144Z,100283.53
2023-05-07T22:08:57.566Z,100267.25
2023-05-07T22:11:26.152Z,100290.78
2023-05-07T22:13:54.489Z,100291.84
2023-05-07T22:16:24.287Z,100291.84
2023-05-07T22:18:52.726Z,100288.38
2023-05-07T22:21:21.136Z,100289.97
2023-05-07T22:23:49.491Z,100284.34
2023-05-07T22:26:17.914Z,100289.97
2023-05-07T22:28:46.375Z,100284.06
2023-05-07T22:31:14.868Z,100287.31
2023-05-07T22:33:44.600Z,100287.56
2023-05-07T22:36:12.976Z,100297.72
2023-05-07T22:38:41.311Z,100292.63
2023-05-07T22:41:09.708Z,100291.59
2023-05-07T22:43:38.090Z,100287.28
2023-05-07T22:46:06.855Z,100266.94
2023-05-07T22:48:35.250Z,100289.16
2023-05-07T22:51:05.265Z,100279.25
2023-05-07T22:53:33.644Z,100282.72
2023-05-07T22:56:07.556Z,100285.41
2023-05-07T22:58:36.201Z,100277.38
2023-05-07T23:01:04.687Z,100267.47
2023-05-07T23:03:33.139Z,100269.06
2023-05-07T23:06:01.535Z,100270.94
2023-05-07T23:08:31.270Z,100273.88
2023-05-07T23:10:59.648Z,100262.63
2023-05-07T23:13:28.293Z,100272.25
2023-05-07T23:15:58.818Z,100261.03
2023-05-07T23:18:28.038Z,100257.56
2023-05-07T23:20:56.457Z,100262.91
2023-05-07T23:23:24.813Z,100262.06
2023-05-07T23:25:54.746Z,100258.59
2023-05-07T23:28:23.052Z,100257.81
2023-05-07T23:30:51.368Z,100258.03
2023-05-07T23:33:19.778Z,100259.09
2023-05-07T23:35:48.140Z,100266.31
2023-05-07T23:38:16.463Z,100260.44
2023-05-07T23:40:44.936Z,100255.91
2023-05-07T23:43:14.692Z,100256.97
2023-05-07T23:45:44.512Z,100270.59
2023-05-07T23:48:12.882Z,100266.03
2023-05-07T23:50:41.259Z,100261.50
2023-05-07T23:53:09.718Z,100262.03
2023-05-07T23:55:38.319Z,100274.34
2023-05-07T23:58:06.695Z,100264.72
